createdAt,value
2022-11-12T00:00:48.124Z,11.68
2022-11-12T00:03:34.451Z,14.80
2022-11-12T00:06:20.865Z,13.50
2022-11-12T00:09:07.376Z,11.82
2022-11-12T00:11:53.553Z,14.68
2022-11-12T00:14:39.981Z,12.60
2022-11-12T00:17:28.134Z,11.52
2022-11-12T00:20:14.586Z,12.32
2022-11-12T00:23:01.074Z,16.20
2022-11-12T00:25:47.685Z,9.52
2022-11-12T00:28:38.021Z,8.70
2022-11-12T00:31:24.889Z,15.48
2022-11-12T00:34:12.618Z,13.77
2022-11-12T00:36:59.447Z,14.80
2022-11-12T00:39:45.993Z,13.95
2022-11-12T00:42:32.859Z,13.93
2022-11-12T00:45:19.273Z,10.32
2022-11-12T00:48:05.685Z,13.60
2022-11-12T00:51:00.537Z,13.65
2022-11-12T00:53:48.760Z,13.63
2022-11-12T00:56:35.849Z,14.38
2022-11-12T00:59:22.198Z,16.42
2022-11-12T01:02:08.680Z,11.85
2022-11-12T01:04:54.997Z,10.45
2022-11-12T01:07:43.281Z,11.07
2022-11-12T01:10:29.829Z,12.80
2022-11-12T01:13:16.459Z,11.43
2022-11-12T01:16:07.263Z,12.45
2022-11-12T01:18:54.841Z,12.15
2022-11-12T01:21:43.685Z,16.58
2022-11-12T01:24:31.371Z,15.43
2022-11-12T01:27:17.575Z,16.15
2022-11-12T01:30:04.571Z,14.55
2022-11-12T01:32:50.761Z,17.50
2022-11-12T01:35:36.968Z,13.70
2022-11-12T01:38:23.766Z,19.60
2022-11-12T01:41:14.394Z,12.40
2022-11-12T01:44:16.630Z,15.43
2022-11-12T01:47:07.649Z,14.90
2022-11-12T01:49:57.515Z,19.88
2022-11-12T01:52:47.321Z,15.80
2022-11-12T01:55:37.618Z,18.08
2022-11-12T01:58:30.673Z,16.42
2022-11-12T02:01:16.863Z,17.67
2022-11-12T02:04:02.996Z,15.95
2022-11-12T02:06:51.945Z,14.70
2022-11-12T02:09:38.633Z,16.55
2022-11-12T02:12:42.558Z,19.20
2022-11-12T02:15:30.594Z,15.57
2022-11-12T02:18:17.322Z,16.30
2022-11-12T02:21:08.355Z,16.58
2022-11-12T02:24:04.780Z,16.60
2022-11-12T02:26:54.653Z,19.55
2022-11-12T02:29:46.112Z,17.23
2022-11-12T02:32:32.519Z,19.00
2022-11-12T02:35:18.876Z,17.95
2022-11-12T02:38:05.988Z,20.75
2022-11-12T02:40:54.063Z,18.52
2022-11-12T02:43:40.536Z,16.08
2022-11-12T02:46:26.941Z,19.20
2022-11-12T02:49:13.340Z,19.25
2022-11-12T02:51:59.817Z,18.63
2022-11-12T02:54:46.327Z,18.95
2022-11-12T02:57:34.187Z,17.85
2022-11-12T03:00:20.592Z,19.98
2022-11-12T03:03:07.042Z,19.13
2022-11-12T03:05:57.958Z,18.35
2022-11-12T03:08:44.378Z,21.15
2022-11-12T03:11:30.569Z,22.85
2022-11-12T03:14:18.604Z,20.48
2022-11-12T03:17:05.304Z,25.23
2022-11-12T03:19:51.450Z,24.85
2022-11-12T03:22:38.149Z,22.25
2022-11-12T03:25:25.018Z,21.13
2022-11-12T03:28:13.947Z,23.73
2022-11-12T03:31:02.307Z,25.08
2022-11-12T03:33:48.855Z,20.60
2022-11-12T03:36:35.286Z,21.73
2022-11-12T03:39:21.809Z,25.77
2022-11-12T03:42:08.273Z,22.83
2022-11-12T03:44:54.601Z,20.90
2022-11-12T03:47:44.378Z,23.45
2022-11-12T03:50:31.407Z,19.17
2022-11-12T03:53:17.875Z,30.25
2022-11-12T03:56:04.235Z,22.15
2022-11-12T03:58:50.909Z,21.02
2022-11-12T04:01:37.479Z,23.80
2022-11-12T04:04:45.037Z,23.40
2022-11-12T04:07:49.211Z,20.95
2022-11-12T04:10:36.960Z,21.27
2022-11-12T04:13:28.126Z,24.77
2022-11-12T04:16:33.948Z,21.00
2022-11-12T04:19:38.041Z,19.23
2022-11-12T04:22:25.817Z,23.45
2022-11-12T04:25:29.633Z,23.67
2022-11-12T04:28:15.937Z,18.98
2022-11-12T04:31:01.406Z,22.27
2022-11-12T04:33:47.718Z,20.08
2022-11-12T04:36:34.369Z,20.00
2022-11-12T04:39:21.833Z,23.55
2022-11-12T04:42:27.375Z,20.70
2022-11-12T04:45:13.823Z,22.10
2022-11-12T04:48:00.430Z,17.35
2022-11-12T04:50:50.168Z,21.25
2022-11-12T04:53:36.293Z,19.65
2022-11-12T04:56:24.301Z,23.33
2022-11-12T04:59:10.700Z,25.73
2022-11-12T05:01:57.152Z,20.48
2022-11-12T05:04:43.457Z,20.73
2022-11-12T05:07:29.885Z,21.48
2022-11-12T05:10:16.932Z,28.10
2022-11-12T05:13:04.642Z,24.52
2022-11-12T05:15:51.117Z,28.15
2022-11-12T05:18:37.651Z,25.85
2022-11-12T05:21:43.641Z,23.42
2022-11-12T05:24:41.531Z,25.02
2022-11-12T05:27:28.873Z,24.23
2022-11-12T05:30:16.760Z,27.35
2022-11-12T05:33:03.205Z,25.85
2022-11-12T05:35:49.506Z,26.10
2022-11-12T05:38:38.078Z,24.55
2022-11-12T05:41:24.508Z,21.25
2022-11-12T05:44:11.083Z,23.20
2022-11-12T05:46:58.880Z,24.85
2022-11-12T05:49:45.341Z,24.90
2022-11-12T05:52:31.792Z,23.15
2022-11-12T05:55:18.288Z,21.02
2022-11-12T05:58:06.333Z,22.90
2022-11-12T06:00:52.552Z,24.98
2022-11-12T06:03:40.792Z,23.58
2022-11-12T06:06:27.319Z,21.17
2022-11-12T06:09:14.012Z,28.25
2022-11-12T06:12:00.391Z,25.92
2022-11-12T06:14:46.907Z,22.80
2022-11-12T06:17:33.389Z,21.20
2022-11-12T06:20:21.533Z,18.80
2022-11-12T06:23:07.885Z,23.75
2022-11-12T06:25:54.324Z,23.88
2022-11-12T06:28:40.783Z,21.55
2022-11-12T06:31:27.271Z,20.58
2022-11-12T06:34:13.654Z,23.92
2022-11-12T06:37:01.400Z,25.85
2022-11-12T06:39:47.827Z,24.25
2022-11-12T06:42:35.012Z,24.13
2022-11-12T06:45:21.390Z,24.17
2022-11-12T06:48:07.846Z,22.75
2022-11-12T06:50:54.449Z,22.38
2022-11-12T06:53:42.283Z,22.27
2022-11-12T06:56:28.522Z,20.60
2022-11-12T06:59:15.173Z,18.95
2022-11-12T07:02:01.702Z,20.33
2022-11-12T07:04:48.035Z,24.20
2022-11-12T07:07:34.552Z,22.48
2022-11-12T07:10:22.149Z,24.50
2022-11-12T07:13:08.621Z,21.85
2022-11-12T07:15:58.130Z,22.38
2022-11-12T07:18:44.293Z,22.05
2022-11-12T07:21:30.954Z,26.00
2022-11-12T07:24:17.293Z,23.60
2022-11-12T07:27:05.260Z,27.40
2022-11-12T07:29:51.490Z,24.80
2022-11-12T07:32:43.997Z,22.52
2022-11-12T07:35:32.360Z,20.67
2022-11-12T07:38:19.037Z,23.00
2022-11-12T07:41:07.142Z,21.70
2022-11-12T07:43:54.911Z,24.13
2022-11-12T07:46:41.453Z,21.45
2022-11-12T07:49:27.774Z,18.30
2022-11-12T07:52:13.958Z,19.63
2022-11-12T07:55:00.523Z,23.17
2022-11-12T07:57:46.930Z,25.52
2022-11-12T08:00:34.434Z,18.95
2022-11-12T08:03:21.366Z,19.92
2022-11-12T08:06:08.452Z,21.55
2022-11-12T08:08:55.459Z,15.57
2022-11-12T08:11:42.307Z,18.23
2022-11-12T08:14:28.661Z,18.77
2022-11-12T08:17:16.611Z,23.88
2022-11-12T08:20:03.144Z,20.88
2022-11-12T08:22:49.897Z,19.33
2022-11-12T08:25:36.729Z,16.85
2022-11-12T08:28:23.433Z,16.77
2022-11-12T08:31:12.619Z,22.23
2022-11-12T08:34:11.837Z,21.27
2022-11-12T08:36:58.040Z,21.52
2022-11-12T08:39:44.350Z,21.63
2022-11-12T08:42:30.905Z,20.50
2022-11-12T08:45:17.450Z,20.95
2022-11-12T08:48:05.600Z,20.52
2022-11-12T08:50:53.302Z,21.65
2022-11-12T08:53:39.563Z,18.70
2022-11-12T08:56:26.270Z,22.98
2022-11-12T08:59:12.593Z,18.90
2022-11-12T09:01:59.302Z,24.05
2022-11-12T09:04:45.848Z,22.80
2022-11-12T09:07:49.429Z,21.17
2022-11-12T09:10:36.904Z,20.63
2022-11-12T09:13:23.438Z,17.10
2022-11-12T09:16:11.376Z,13.00
2022-11-12T09:18:57.772Z,19.33
2022-11-12T09:21:44.184Z,18.52
2022-11-12T09:24:32.144Z,22.30
2022-11-12T09:27:18.398Z,19.95
2022-11-12T09:30:06.562Z,19.85
2022-11-12T09:32:58.413Z,17.27
2022-11-12T09:35:45.463Z,15.15
2022-11-12T09:38:32.070Z,12.75
2022-11-12T09:41:26.637Z,14.00
2022-11-12T09:44:16.753Z,14.82
2022-11-12T09:47:07.936Z,14.30
2022-11-12T09:50:02.790Z,12.95
2022-11-12T09:52:56.162Z,12.80
2022-11-12T09:55:45.633Z,14.00
2022-11-12T09:58:33.214Z,17.08
2022-11-12T10:01:24.849Z,15.32
2022-11-12T10:04:29.422Z,14.80
2022-11-12T10:07:25.758Z,16.00
2022-11-12T10:10:16.550Z,16.02
2022-11-12T10:13:15.528Z,16.30
2022-11-12T10:16:42.190Z,20.80
2022-11-12T10:19:50.635Z,19.25
2022-11-12T10:22:51.205Z,16.45
2022-11-12T10:25:38.516Z,16.38
2022-11-12T10:28:31.971Z,20.60
2022-11-12T10:31:23.730Z,16.98
2022-11-12T10:34:18.559Z,19.65
2022-11-12T10:37:07.051Z,20.98
2022-11-12T10:39:54.153Z,19.23
2022-11-12T10:42:57.453Z,17.92
2022-11-12T10:45:43.909Z,16.90
2022-11-12T10:48:34.199Z,16.75
2022-11-12T10:51:26.876Z,18.23
2022-11-12T10:54:30.344Z,19.33
2022-11-12T10:57:25.659Z,20.00
2022-11-12T11:00:21.459Z,18.15
2022-11-12T11:03:17.523Z,20.58
2022-11-12T11:06:07.596Z,16.52
2022-11-12T11:08:55.207Z,15.85
2022-11-12T11:11:50.085Z,23.02
2022-11-12T11:14:42.723Z,17.40
2022-11-12T11:17:29.154Z,16.65
2022-11-12T11:20:25.718Z,18.73
2022-11-12T11:23:21.255Z,20.02
2022-11-12T11:26:20.384Z,21.83
2022-11-12T11:29:25.455Z,16.80
2022-11-12T11:32:23.964Z,18.80
2022-11-12T11:35:21.640Z,23.33
2022-11-12T11:38:22.159Z,15.93
2022-11-12T11:41:22.435Z,16.20
2022-11-12T11:44:18.036Z,22.00
2022-11-12T11:47:17.369Z,14.43
2022-11-12T11:50:17.369Z,17.40
2022-11-12T11:53:16.874Z,13.75
2022-11-12T11:56:10.385Z,13.75
2022-11-12T11:59:20.450Z,16.17
2022-11-12T12:02:26.057Z,16.33
2022-11-12T12:05:28.982Z,12.93
2022-11-12T12:08:22.362Z,18.67
2022-11-12T12:11:16.871Z,15.95
2022-11-12T12:14:23.426Z,14.13
2022-11-12T12:17:20.059Z,11.45
2022-11-12T12:20:17.533Z,13.50
2022-11-12T12:23:06.936Z,14.23
2022-11-12T12:26:00.253Z,13.30
2022-11-12T12:28:54.763Z,13.48
2022-11-12T12:31:48.114Z,15.32
2022-11-12T12:34:39.291Z,12.70
2022-11-12T12:37:32.631Z,18.10
2022-11-12T12:40:23.497Z,14.45
2022-11-12T12:43:18.771Z,16.02
2022-11-12T12:46:07.881Z,10.30
2022-11-12T12:48:56.263Z,11.18
2022-11-12T12:51:42.945Z,9.15
2022-11-12T12:54:58.322Z,10.13
2022-11-12T12:57:45.244Z,10.23
2022-11-12T13:00:39.140Z,10.27
2022-11-12T13:03:59.569Z,6.47
2022-11-12T13:06:54.871Z,4.35
2022-11-12T13:09:41.349Z,7.07
2022-11-12T13:13:09.862Z,4.75
2022-11-12T13:15:57.429Z,8.93
2022-11-12T13:19:11.122Z,6.28
2022-11-12T13:22:30.892Z,4.82
2022-11-12T13:25:29.993Z,4.57
2022-11-12T13:28:16.190Z,6.43
2022-11-12T13:31:05.319Z,9.05
2022-11-12T13:33:51.660Z,4.53
2022-11-12T13:36:38.360Z,6.53
2022-11-12T13:39:24.946Z,11.35
2022-11-12T13:42:33.160Z,7.72
2022-11-12T13:45:22.459Z,6.20
2022-11-12T13:48:10.880Z,5.25
2022-11-12T13:51:02.411Z,9.18
2022-11-12T13:53:49.115Z,3.78
2022-11-12T13:56:37.349Z,5.40
2022-11-12T13:59:26.553Z,5.88
2022-11-12T14:02:22.138Z,7.05
2022-11-12T14:05:15.454Z,7.38
2022-11-12T14:08:19.444Z,8.88
2022-11-12T14:11:20.250Z,7.50
2022-11-12T14:14:15.551Z,5.82
2022-11-12T14:17:21.976Z,6.47
2022-11-12T14:20:28.951Z,8.73
2022-11-12T14:23:23.187Z,8.80
2022-11-12T14:26:12.289Z,6.78
2022-11-12T14:28:59.224Z,7.35
2022-11-12T14:31:45.844Z,7.30
2022-11-12T14:34:35.100Z,10.45
2022-11-12T14:37:43.416Z,11.90
2022-11-12T14:40:31.957Z,10.23
2022-11-12T14:43:27.377Z,10.93
2022-11-12T14:46:24.359Z,10.30
2022-11-12T14:49:19.157Z,11.15
2022-11-12T14:52:12.196Z,8.90
2022-11-12T14:55:00.997Z,9.68
2022-11-12T14:57:47.579Z,9.88
2022-11-12T15:00:43.125Z,12.90
2022-11-12T15:03:33.694Z,9.20
2022-11-12T15:06:28.936Z,12.38
2022-11-12T15:09:21.684Z,10.70
2022-11-12T15:12:12.674Z,11.27
2022-11-12T15:15:08.790Z,12.35
2022-11-12T15:18:00.132Z,11.13
2022-11-12T15:20:46.908Z,13.68
2022-11-12T15:23:33.323Z,13.23
2022-11-12T15:26:32.332Z,15.18
2022-11-12T15:29:27.978Z,13.00
2022-11-12T15:32:33.823Z,11.60
2022-11-12T15:35:34.601Z,13.30
2022-11-12T15:38:26.620Z,14.30
2022-11-12T15:41:26.758Z,14.77
2022-11-12T15:44:13.876Z,13.65
2022-11-12T15:47:00.742Z,19.27
2022-11-12T15:49:51.504Z,14.63
2022-11-12T15:52:37.692Z,60.28
2022-11-12T15:55:23.939Z,23.35
2022-11-12T15:58:17.370Z,16.33
2022-11-12T16:01:04.989Z,13.02
2022-11-12T16:03:51.198Z,13.98
2022-11-12T16:06:37.721Z,12.63
2022-11-12T16:09:24.151Z,11.02
2022-11-12T16:12:12.532Z,14.93
2022-11-12T16:15:01.272Z,11.35
2022-11-12T16:17:49.691Z,10.52
2022-11-12T16:20:36.806Z,9.88
2022-11-12T16:23:23.188Z,9.70
2022-11-12T16:26:14.498Z,11.90
2022-11-12T16:29:00.884Z,11.02
2022-11-12T16:31:48.380Z,14.27
2022-11-12T16:34:34.693Z,14.90
2022-11-12T16:37:20.966Z,16.23
2022-11-12T16:40:10.758Z,16.65
2022-11-12T16:42:57.300Z,19.75
2022-11-12T16:45:45.452Z,18.50
2022-11-12T16:48:33.499Z,16.67
2022-11-12T16:51:21.771Z,18.88
2022-11-12T16:54:08.689Z,19.75
2022-11-12T16:56:55.138Z,22.17
2022-11-12T16:59:41.462Z,25.42
2022-11-12T17:02:28.285Z,21.77
2022-11-12T17:05:19.798Z,24.48
2022-11-12T17:08:06.380Z,25.60
2022-11-12T17:10:52.836Z,23.63
2022-11-12T17:13:39.737Z,21.65
2022-11-12T17:16:26.040Z,25.52
2022-11-12T17:19:12.328Z,23.42
2022-11-12T17:22:00.291Z,22.05
2022-11-12T17:24:47.031Z,21.85
2022-11-12T17:27:33.512Z,21.42
2022-11-12T17:30:20.261Z,21.10
2022-11-12T17:33:06.708Z,22.45
2022-11-12T17:35:53.038Z,23.42
2022-11-12T17:38:41.131Z,21.23
2022-11-12T17:41:28.852Z,19.30
2022-11-12T17:44:17.607Z,21.48
2022-11-12T17:47:04.157Z,23.23
2022-11-12T17:49:50.712Z,20.58
2022-11-12T17:52:37.318Z,22.20
2022-11-12T17:55:25.013Z,22.23
2022-11-12T17:58:11.491Z,24.65
2022-11-12T18:01:05.409Z,21.13
2022-11-12T18:03:54.597Z,19.85
2022-11-12T18:06:40.967Z,21.45
2022-11-12T18:09:27.394Z,23.08
2022-11-12T18:12:16.314Z,20.02
2022-11-12T18:15:02.852Z,23.08
2022-11-12T18:17:49.404Z,24.95
2022-11-12T18:20:36.774Z,25.98
2022-11-12T18:23:23.829Z,23.17
2022-11-12T18:26:12.084Z,24.08
2022-11-12T18:29:00.573Z,27.55
2022-11-12T18:31:47.237Z,24.17
2022-11-12T18:34:33.431Z,21.63
2022-11-12T18:37:19.861Z,23.70
2022-11-12T18:40:06.955Z,26.45
2022-11-12T18:42:54.412Z,26.58
2022-11-12T18:45:41.932Z,24.40
2022-11-12T18:48:29.573Z,22.20
2022-11-12T18:51:17.774Z,25.20
2022-11-12T18:54:04.830Z,20.83
2022-11-12T18:56:51.358Z,24.40
2022-11-12T18:59:37.867Z,22.98
2022-11-12T19:02:25.938Z,24.30
2022-11-12T19:05:12.183Z,25.38
2022-11-12T19:07:59.046Z,21.73
2022-11-12T19:10:45.225Z,26.65
2022-11-12T19:13:32.481Z,24.83
2022-11-12T19:16:20.029Z,25.15
2022-11-12T19:19:09.042Z,22.58
2022-11-12T19:21:55.673Z,25.40
2022-11-12T19:24:42.014Z,27.20
2022-11-12T19:27:28.424Z,26.17
2022-11-12T19:30:15.201Z,22.58
2022-11-12T19:33:01.243Z,26.27
2022-11-12T19:35:49.101Z,26.00
2022-11-12T19:38:35.373Z,30.67
2022-11-12T19:41:21.884Z,23.67
2022-11-12T19:44:08.480Z,28.63
2022-11-12T19:46:54.698Z,24.02
2022-11-12T19:49:41.129Z,26.85
2022-11-12T19:52:28.991Z,28.88
2022-11-12T19:55:15.891Z,25.55
2022-11-12T19:58:02.189Z,28.90
2022-11-12T20:00:48.457Z,29.70
2022-11-12T20:03:34.707Z,29.38
2022-11-12T20:06:25.390Z,26.80
2022-11-12T20:09:13.707Z,26.65
2022-11-12T20:12:00.376Z,26.58
2022-11-12T20:14:46.593Z,28.10
2022-11-12T20:17:33.314Z,31.48
2022-11-12T20:20:19.645Z,32.35
2022-11-12T20:23:06.089Z,24.30
2022-11-12T20:25:54.376Z,22.05
2022-11-12T20:28:43.289Z,24.85
2022-11-12T20:31:29.832Z,22.63
2022-11-12T20:34:16.254Z,26.48
2022-11-12T20:37:02.486Z,25.02
2022-11-12T20:39:49.180Z,24.55
2022-11-12T20:42:37.045Z,25.95
2022-11-12T20:45:23.715Z,25.65
2022-11-12T20:48:10.248Z,26.02
2022-11-12T20:51:23.225Z,24.15
2022-11-12T20:54:11.019Z,24.92
2022-11-12T20:56:57.431Z,24.75
2022-11-12T20:59:44.995Z,24.27
2022-11-12T21:02:31.338Z,24.35
2022-11-12T21:05:17.726Z,23.67
2022-11-12T21:08:03.992Z,25.90
2022-11-12T21:10:50.814Z,27.80
2022-11-12T21:13:38.419Z,26.52
2022-11-12T21:16:26.207Z,26.25
2022-11-12T21:19:12.508Z,22.65
2022-11-12T21:21:59.087Z,25.85
2022-11-12T21:24:45.534Z,26.13
2022-11-12T21:27:33.511Z,24.33
2022-11-12T21:30:20.718Z,22.33
2022-11-12T21:33:08.552Z,25.10
2022-11-12T21:35:54.964Z,28.20
2022-11-12T21:38:41.485Z,24.92
2022-11-12T21:41:31.020Z,23.92
2022-11-12T21:44:17.566Z,22.33
2022-11-12T21:47:04.336Z,32.47
2022-11-12T21:49:52.120Z,21.70
2022-11-12T21:52:38.460Z,23.27
2022-11-12T21:55:25.028Z,21.17
2022-11-12T21:58:11.488Z,19.77
2022-11-12T22:01:07.823Z,22.27
2022-11-12T22:03:56.123Z,22.73
2022-11-12T22:06:43.923Z,22.05
2022-11-12T22:09:30.243Z,20.95
2022-11-12T22:12:16.861Z,20.83
2022-11-12T22:15:03.331Z,21.90
2022-11-12T22:17:49.716Z,19.60
2022-11-12T22:20:36.202Z,19.08
2022-11-12T22:23:23.876Z,16.80
2022-11-12T22:26:12.741Z,16.70
2022-11-12T22:29:00.008Z,18.38
2022-11-12T22:31:46.564Z,17.77
2022-11-12T22:34:32.870Z,19.35
2022-11-12T22:37:19.531Z,17.05
2022-11-12T22:40:13.183Z,15.52
2022-11-12T22:42:59.967Z,17.98
2022-11-12T22:45:46.452Z,16.98
2022-11-12T22:48:33.135Z,17.38
2022-11-12T22:51:21.959Z,18.42
2022-11-12T22:54:09.320Z,15.20
2022-11-12T22:56:56.795Z,14.23
2022-11-12T22:59:43.310Z,16.17
2022-11-12T23:02:29.952Z,16.25
2022-11-12T23:05:16.212Z,17.15
2022-11-12T23:08:02.693Z,16.45
2022-11-12T23:10:49.314Z,19.27
2022-11-12T23:13:37.917Z,14.95
2022-11-12T23:16:25.782Z,15.82
2022-11-12T23:19:12.282Z,16.27
2022-11-12T23:21:58.664Z,16.02
2022-11-12T23:24:44.894Z,17.75
2022-11-12T23:27:31.498Z,18.45
2022-11-12T23:30:19.558Z,18.02
2022-11-12T23:33:05.953Z,16.80
2022-11-12T23:35:52.503Z,17.45
2022-11-12T23:38:39.080Z,20.73
2022-11-12T23:41:27.285Z,19.17
2022-11-12T23:44:13.873Z,20.52
2022-11-12T23:47:01.624Z,19.65
2022-11-12T23:49:48.045Z,16.92
2022-11-12T23:52:34.646Z,17.00
2022-11-12T23:55:21.064Z,20.73
2022-11-12T23:58:16.676Z,19.38
